Portada
METAR-TAF:

METAR-TAF

Aeroports :

Buriram, Tailàndia

latitud: 15-13-46N, longitud: 103-15-04E, altitud: 180 m

Observació

L'informe es va fer fa 49 minuts, a les 09:00 UTC
Vent 9 kt del Sud/Sud-Oest, variant entre Sud/Sud-Est i Sud-Oest
Temperatura 34°C
Humitat 63%
Pressió 1004 hPa
Visibilitat: 9000 m
Núvols disperses a una alçada de 2500 ft

METAR: VTUO 260900Z 20009KT 160V220 9000 SCT025 34/26 Q1004 NOSIG

Hora: 16:49 (09:49 UTC)

Pronòstic

L'informe es va fer fa 4 hores i 49 minuts, a les 05:00 UTC
Pronòstic vàlid del 26 a les 06 UTC al 27 a les 06 UTC
Vent 7 kt del Sud-Oest
Visibilitat: 9000 m
Núvols disperses a una alçada de 2500 ft

TAF: VTUO 260500Z 2606/2706 23007KT 9000 SCT025

Observacions i pronòstics meteorològics de més de 4000 aeroports (METAR i TAF).

Les estacions disponibles són els punts grocs i vermells al mapa.

Posi el ratolí al punt desitjat per veure el nom de l'estació.

Feu clic per veure les observacions i els pronòstics meteorològics.

Per canviar el mapa: feu clic els botons verds amb una creu de color negre per apropar; al botó verd amb un guió per allunyar la imatge; o en les fletxes verdes per a mapes adjacents.


METAR-TAF: